createdAt,value
2023-02-18T00:00:28.857Z,94.33
2023-02-18T00:02:58.477Z,94.30
2023-02-18T00:05:25.451Z,94.21
2023-02-18T00:07:52.232Z,94.85
2023-02-18T00:10:19.117Z,95.25
2023-02-18T00:12:46.301Z,95.22
2023-02-18T00:15:13.378Z,94.57
2023-02-18T00:17:40.106Z,94.85
2023-02-18T00:20:08.335Z,94.72
2023-02-18T00:22:35.584Z,95.01
2023-02-18T00:25:02.354Z,96.13
2023-02-18T00:27:29.035Z,94.56
2023-02-18T00:29:55.913Z,94.08
2023-02-18T00:32:22.852Z,94.78
2023-02-18T00:34:49.701Z,93.85
2023-02-18T00:37:16.458Z,94.77
2023-02-18T00:39:44.183Z,95.23
2023-02-18T00:42:10.936Z,96.16
2023-02-18T00:44:37.712Z,97.87
2023-02-18T00:47:04.570Z,96.06
2023-02-18T00:49:31.567Z,97.58
2023-02-18T00:51:58.304Z,97.58
2023-02-18T00:54:25.046Z,98.41
2023-02-18T00:56:51.898Z,98.77
2023-02-18T00:59:18.694Z,97.66
2023-02-18T01:01:45.464Z,97.06
2023-02-18T01:04:12.924Z,98.05
2023-02-18T01:06:39.999Z,98.36
2023-02-18T01:09:06.883Z,96.66
2023-02-18T01:11:33.649Z,96.71
2023-02-18T01:14:00.506Z,97.97
2023-02-18T01:16:27.532Z,98.12
2023-02-18T01:18:54.536Z,98.84
2023-02-18T01:21:21.432Z,99.14
2023-02-18T01:23:48.395Z,98.87
2023-02-18T01:26:15.397Z,98.10
2023-02-18T01:28:42.182Z,98.02
2023-02-18T01:31:11.538Z,98.46
2023-02-18T01:33:38.417Z,97.19
2023-02-18T01:36:06.471Z,97.00
2023-02-18T01:38:33.995Z,97.07
2023-02-18T01:41:00.745Z,95.54
2023-02-18T01:43:27.625Z,96.61
2023-02-18T01:46:14.311Z,97.17
2023-02-18T01:49:01.010Z,96.19
2023-02-18T01:51:32.157Z,95.87
2023-02-18T01:54:04.003Z,95.90
2023-02-18T01:56:47.091Z,96.29
2023-02-18T01:59:18.602Z,95.76
2023-02-18T02:01:46.754Z,94.69
2023-02-18T02:04:13.738Z,94.89
2023-02-18T02:06:40.484Z,95.17
2023-02-18T02:09:11.991Z,95.75
2023-02-18T02:11:55.188Z,95.17
2023-02-18T02:14:39.484Z,94.86
2023-02-18T02:17:21.364Z,94.13
2023-02-18T02:20:00.228Z,95.23
2023-02-18T02:22:26.887Z,95.33
2023-02-18T02:25:09.930Z,95.09
2023-02-18T02:28:08.658Z,93.91
2023-02-18T02:30:58.721Z,94.77
2023-02-18T02:33:44.230Z,94.46
2023-02-18T02:36:19.465Z,95.61
2023-02-18T02:38:52.107Z,95.84
2023-02-18T02:41:44.793Z,95.65
2023-02-18T02:44:28.813Z,96.36
2023-02-18T02:47:07.645Z,96.72
2023-02-18T02:49:59.939Z,96.46
2023-02-18T02:52:35.203Z,97.16
2023-02-18T02:55:13.539Z,97.56
2023-02-18T02:57:45.348Z,98.16
2023-02-18T03:00:13.580Z,98.00
2023-02-18T03:02:56.049Z,98.24
2023-02-18T03:06:05.414Z,99.18
2023-02-18T03:09:05.639Z,96.54
2023-02-18T03:11:42.831Z,97.63
2023-02-18T03:14:18.117Z,96.09
2023-02-18T03:17:02.526Z,96.22
2023-02-18T03:19:38.428Z,96.49
2023-02-18T03:22:27.406Z,97.07
2023-02-18T03:24:57.569Z,96.56
2023-02-18T03:27:30.456Z,96.47
2023-02-18T03:30:01.929Z,96.82
2023-02-18T03:32:31.611Z,97.19
2023-02-18T03:35:06.026Z,97.26
2023-02-18T03:37:38.158Z,95.50
2023-02-18T03:40:06.602Z,97.20
2023-02-18T03:42:33.364Z,96.25
2023-02-18T03:45:00.076Z,97.65
2023-02-18T03:47:27.088Z,97.71
2023-02-18T03:49:53.808Z,97.96
2023-02-18T03:52:20.636Z,97.39
2023-02-18T03:54:47.258Z,97.74
2023-02-18T03:57:13.962Z,98.15
2023-02-18T03:59:40.802Z,98.66
2023-02-18T04:02:07.689Z,98.91
2023-02-18T04:04:34.486Z,99.82
2023-02-18T04:07:01.219Z,99.62
2023-02-18T04:09:27.903Z,100.25
2023-02-18T04:11:54.579Z,99.51
2023-02-18T04:14:21.220Z,100.59
2023-02-18T04:16:47.889Z,100.21
2023-02-18T04:19:14.562Z,100.06
2023-02-18T04:21:41.226Z,101.20
2023-02-18T04:24:07.880Z,101.15
2023-02-18T04:26:34.629Z,101.61
2023-02-18T04:29:01.389Z,101.77
2023-02-18T04:31:28.392Z,102.77
2023-02-18T04:33:55.395Z,102.39
2023-02-18T04:36:22.131Z,102.43
2023-02-18T04:38:48.785Z,103.01
2023-02-18T04:41:15.613Z,103.02
2023-02-18T04:43:43.249Z,103.61
2023-02-18T04:46:10.257Z,103.56
2023-02-18T04:48:37.156Z,103.78
2023-02-18T04:51:04.413Z,103.36
2023-02-18T04:53:31.170Z,103.47
2023-02-18T04:55:57.815Z,104.51
2023-02-18T04:58:24.528Z,103.66
2023-02-18T05:00:51.713Z,104.22
2023-02-18T05:03:18.417Z,104.31
2023-02-18T05:05:45.899Z,104.31
2023-02-18T05:08:12.716Z,104.20
2023-02-18T05:10:39.532Z,104.48
2023-02-18T05:13:06.377Z,104.66
2023-02-18T05:15:33.258Z,104.94
2023-02-18T05:18:00.106Z,104.13
2023-02-18T05:20:27.504Z,105.05
2023-02-18T05:22:54.153Z,105.08
2023-02-18T05:25:21.215Z,105.36
2023-02-18T05:27:48.092Z,105.04
2023-02-18T05:30:14.959Z,105.50
2023-02-18T05:32:41.816Z,105.29
2023-02-18T05:35:08.673Z,105.69
2023-02-18T05:37:35.856Z,105.36
2023-02-18T05:40:03.327Z,105.79
2023-02-18T05:42:30.162Z,105.69
2023-02-18T05:44:56.804Z,105.47
2023-02-18T05:47:23.529Z,105.12
2023-02-18T05:49:50.993Z,105.69
2023-02-18T05:52:17.764Z,105.91
2023-02-18T05:54:44.993Z,106.43
2023-02-18T05:57:14.735Z,106.39
2023-02-18T05:59:41.583Z,106.66
2023-02-18T06:02:08.439Z,106.84
2023-02-18T06:04:35.322Z,107.46
2023-02-18T06:07:01.990Z,107.69
2023-02-18T06:09:28.766Z,107.69
2023-02-18T06:11:55.553Z,108.05
2023-02-18T06:14:22.269Z,108.72
2023-02-18T06:16:49.013Z,108.73
2023-02-18T06:19:15.649Z,109.06
2023-02-18T06:21:42.355Z,109.07
2023-02-18T06:24:09.158Z,109.13
2023-02-18T06:26:35.842Z,109.62
2023-02-18T06:29:02.814Z,110.00
2023-02-18T06:31:29.566Z,110.13
2023-02-18T06:33:56.403Z,110.10
2023-02-18T06:36:23.329Z,109.97
2023-02-18T06:38:50.049Z,110.21
2023-02-18T06:41:17.060Z,110.68
2023-02-18T06:43:43.727Z,110.73
2023-02-18T06:46:10.709Z,111.04
2023-02-18T06:48:38.879Z,110.79
2023-02-18T06:51:05.880Z,110.85
2023-02-18T06:53:32.633Z,110.65
2023-02-18T06:55:59.410Z,110.83
2023-02-18T06:58:26.072Z,110.35
2023-02-18T07:00:52.953Z,110.46
2023-02-18T07:03:19.732Z,109.64
2023-02-18T07:05:46.537Z,109.59
2023-02-18T07:08:13.824Z,109.27
2023-02-18T07:10:40.833Z,109.29
2023-02-18T07:13:07.672Z,109.12
2023-02-18T07:15:34.483Z,108.59
2023-02-18T07:18:01.192Z,108.44
2023-02-18T07:20:28.397Z,107.72
2023-02-18T07:22:55.312Z,107.85
2023-02-18T07:25:23.304Z,107.01
2023-02-18T07:27:51.092Z,105.63
2023-02-18T07:30:19.726Z,104.31
2023-02-18T07:32:46.500Z,103.65
2023-02-18T07:35:17.786Z,102.62
2023-02-18T07:37:46.663Z,103.70
2023-02-18T07:40:15.869Z,102.92
2023-02-18T07:42:42.616Z,103.78
2023-02-18T07:45:10.448Z,102.63
2023-02-18T07:47:37.489Z,102.94
2023-02-18T07:50:05.735Z,102.01
2023-02-18T07:52:32.469Z,102.30
2023-02-18T07:54:59.158Z,102.54
2023-02-18T07:57:26.074Z,102.45
2023-02-18T07:59:52.911Z,102.49
2023-02-18T08:02:22.006Z,102.71
2023-02-18T08:04:49.535Z,103.13
2023-02-18T08:07:17.915Z,103.40
2023-02-18T08:09:44.759Z,103.54
2023-02-18T08:12:11.533Z,103.31
2023-02-18T08:14:38.243Z,104.02
2023-02-18T08:17:05.026Z,103.95
2023-02-18T08:19:31.770Z,104.83
2023-02-18T08:22:02.326Z,104.69
2023-02-18T08:24:29.179Z,105.53
2023-02-18T08:27:00.901Z,105.41
2023-02-18T08:29:28.941Z,106.07
2023-02-18T08:31:57.374Z,106.14
2023-02-18T08:34:24.219Z,105.63
2023-02-18T08:36:51.031Z,105.86
2023-02-18T08:39:17.763Z,106.12
2023-02-18T08:41:44.471Z,106.37
2023-02-18T08:44:11.311Z,106.37
2023-02-18T08:46:38.076Z,106.35
2023-02-18T08:49:05.154Z,106.63
2023-02-18T08:51:32.140Z,106.47
2023-02-18T08:53:59.457Z,106.56
2023-02-18T08:56:26.535Z,106.18
2023-02-18T08:58:53.506Z,106.54
2023-02-18T09:01:21.193Z,107.20
2023-02-18T09:03:48.807Z,107.33
2023-02-18T09:06:15.837Z,106.98
2023-02-18T09:08:42.631Z,107.22
2023-02-18T09:11:11.549Z,106.69
2023-02-18T09:13:39.406Z,106.62
2023-02-18T09:16:13.764Z,107.01
2023-02-18T09:18:41.426Z,107.05
2023-02-18T09:21:11.994Z,107.69
2023-02-18T09:23:39.552Z,107.98
2023-02-18T09:26:08.380Z,108.53
2023-02-18T09:28:35.792Z,109.50
2023-02-18T09:31:12.917Z,110.13
2023-02-18T09:33:42.481Z,110.83
2023-02-18T09:36:09.561Z,111.28
2023-02-18T09:38:36.909Z,111.71
2023-02-18T09:41:09.294Z,111.79
2023-02-18T09:43:43.701Z,112.44
2023-02-18T09:46:23.953Z,112.68
2023-02-18T09:48:52.072Z,113.44
2023-02-18T09:51:19.702Z,113.94
2023-02-18T09:53:47.031Z,114.85
2023-02-18T09:56:22.629Z,113.20
2023-02-18T09:58:50.778Z,113.06
2023-02-18T10:01:35.714Z,112.59
2023-02-18T10:04:10.397Z,113.06
2023-02-18T10:06:37.893Z,113.57
2023-02-18T10:09:14.813Z,112.71
2023-02-18T10:11:44.001Z,113.32
2023-02-18T10:14:13.371Z,114.57
2023-02-18T10:16:40.201Z,115.76
2023-02-18T10:19:32.972Z,113.87
2023-02-18T10:22:02.417Z,114.93
2023-02-18T10:24:50.463Z,116.22
2023-02-18T10:27:26.139Z,114.85
2023-02-18T10:29:54.084Z,114.70
2023-02-18T10:32:34.519Z,114.62
2023-02-18T10:35:22.380Z,114.12
2023-02-18T10:38:09.660Z,114.51
2023-02-18T10:41:27.288Z,115.80
2023-02-18T10:44:06.366Z,115.90
2023-02-18T10:46:40.380Z,116.80
2023-02-18T10:49:14.035Z,117.28
2023-02-18T10:51:48.145Z,117.73
2023-02-18T10:54:15.890Z,118.05
2023-02-18T10:56:58.508Z,117.95
2023-02-18T10:59:27.812Z,118.92
2023-02-18T11:02:30.735Z,118.99
2023-02-18T11:05:00.131Z,118.99
2023-02-18T11:07:32.353Z,118.87
2023-02-18T11:10:01.339Z,118.50
2023-02-18T11:12:49.695Z,117.60
2023-02-18T11:15:28.643Z,116.56
2023-02-18T11:17:59.594Z,117.47
2023-02-18T11:20:32.473Z,118.07
2023-02-18T11:23:20.995Z,118.99
2023-02-18T11:26:15.960Z,117.76
2023-02-18T11:28:48.685Z,118.93
2023-02-18T11:31:24.708Z,116.95
2023-02-18T11:33:56.919Z,116.73
2023-02-18T11:36:31.349Z,116.67
2023-02-18T11:39:07.786Z,116.05
2023-02-18T11:41:39.321Z,116.89
2023-02-18T11:44:20.846Z,116.73
2023-02-18T11:46:59.818Z,116.25
2023-02-18T11:49:27.315Z,116.64
2023-02-18T11:51:54.042Z,117.09
2023-02-18T11:54:23.674Z,118.39
2023-02-18T11:57:01.665Z,117.85
2023-02-18T11:59:32.096Z,117.90
2023-02-18T12:02:11.046Z,118.57
2023-02-18T12:04:47.846Z,118.92
2023-02-18T12:07:24.368Z,118.81
2023-02-18T12:09:56.222Z,118.76
2023-02-18T12:12:34.453Z,118.99
2023-02-18T12:15:01.316Z,117.01
2023-02-18T12:17:34.328Z,117.41
2023-02-18T12:20:19.629Z,117.43
2023-02-18T12:23:13.507Z,117.70
2023-02-18T12:25:58.980Z,116.34
2023-02-18T12:28:37.340Z,116.43
2023-02-18T12:31:16.055Z,116.91
2023-02-18T12:34:20.513Z,117.14
2023-02-18T12:36:50.224Z,116.80
2023-02-18T12:39:30.390Z,117.75
2023-02-18T12:42:24.241Z,117.65
2023-02-18T12:45:14.918Z,117.48
2023-02-18T12:48:09.953Z,118.31
2023-02-18T12:51:15.339Z,117.54
2023-02-18T12:53:57.259Z,117.86
2023-02-18T12:56:50.521Z,118.39
2023-02-18T12:59:54.750Z,117.58
2023-02-18T13:03:06.370Z,118.90
2023-02-18T13:05:41.314Z,118.99
2023-02-18T13:08:11.431Z,118.99
2023-02-18T13:10:49.856Z,118.79
2023-02-18T13:13:18.587Z,117.47
2023-02-18T13:15:51.961Z,118.34
2023-02-18T13:18:34.486Z,117.60
2023-02-18T13:21:08.641Z,117.05
2023-02-18T13:23:40.080Z,117.37
2023-02-18T13:26:11.818Z,117.41
2023-02-18T13:28:43.122Z,117.34
2023-02-18T13:31:25.144Z,117.92
2023-02-18T13:34:21.660Z,118.52
2023-02-18T13:37:11.079Z,118.53
2023-02-18T13:39:46.037Z,118.99
2023-02-18T13:42:25.523Z,118.24
2023-02-18T13:44:55.382Z,118.17
2023-02-18T13:47:40.160Z,118.22
2023-02-18T13:50:26.722Z,117.29
2023-02-18T13:53:08.605Z,116.95
2023-02-18T13:55:47.845Z,116.27
2023-02-18T13:58:29.721Z,115.64
2023-02-18T14:01:05.600Z,116.56
2023-02-18T14:03:38.283Z,116.57
2023-02-18T14:06:48.470Z,117.21
2023-02-18T14:09:15.155Z,117.79
2023-02-18T14:12:09.501Z,118.26
2023-02-18T14:14:38.326Z,117.54
2023-02-18T14:17:18.692Z,117.23
2023-02-18T14:20:00.715Z,117.70
2023-02-18T14:22:45.830Z,117.97
2023-02-18T14:25:21.442Z,117.91
2023-02-18T14:27:54.041Z,117.32
2023-02-18T14:30:30.223Z,118.02
2023-02-18T14:33:00.969Z,117.53
2023-02-18T14:35:27.789Z,117.38
2023-02-18T14:38:05.241Z,117.63
2023-02-18T14:40:50.303Z,117.41
2023-02-18T14:43:50.515Z,116.54
2023-02-18T14:46:36.155Z,117.88
2023-02-18T14:49:21.100Z,117.79
2023-02-18T14:51:48.735Z,117.54
2023-02-18T14:54:19.160Z,117.72
2023-02-18T14:57:05.585Z,118.47
2023-02-18T14:59:37.445Z,118.01
2023-02-18T15:02:04.196Z,118.18
2023-02-18T15:04:31.010Z,118.34
2023-02-18T15:07:09.244Z,118.63
2023-02-18T15:09:46.101Z,118.66
2023-02-18T15:12:18.118Z,117.78
2023-02-18T15:14:47.174Z,118.33
2023-02-18T15:17:20.481Z,118.05
2023-02-18T15:19:59.431Z,118.41
2023-02-18T15:22:29.658Z,118.59
2023-02-18T15:24:57.714Z,118.11
2023-02-18T15:27:28.721Z,118.34
2023-02-18T15:30:21.339Z,118.11
2023-02-18T15:32:54.125Z,118.12
2023-02-18T15:35:23.159Z,118.77
2023-02-18T15:37:55.581Z,118.99
2023-02-18T15:40:24.796Z,118.99
2023-02-18T15:42:53.694Z,118.99
2023-02-18T15:45:42.241Z,118.99
2023-02-18T15:48:36.546Z,118.99
2023-02-18T15:51:16.444Z,118.99
2023-02-18T15:53:47.361Z,118.99
2023-02-18T15:56:38.966Z,118.99
2023-02-18T15:59:21.710Z,118.99
2023-02-18T16:01:57.597Z,118.99
2023-02-18T16:04:30.223Z,118.99
2023-02-18T16:06:57.055Z,118.99
2023-02-18T16:09:27.251Z,118.99
2023-02-18T16:12:00.342Z,118.99
2023-02-18T16:14:35.014Z,118.99
2023-02-18T16:17:27.607Z,118.99
2023-02-18T16:20:04.799Z,118.99
2023-02-18T16:22:42.640Z,118.99
2023-02-18T16:25:22.281Z,118.99
2023-02-18T16:27:52.311Z,118.99
2023-02-18T16:30:24.981Z,118.99
2023-02-18T16:32:52.156Z,118.99
2023-02-18T16:35:19.547Z,118.99
2023-02-18T16:37:48.044Z,118.99
2023-02-18T16:40:29.934Z,118.99
2023-02-18T16:42:59.464Z,118.99
2023-02-18T16:45:37.031Z,118.99
2023-02-18T16:48:04.966Z,118.99
2023-02-18T16:50:33.628Z,118.99
2023-02-18T16:53:00.821Z,118.99
2023-02-18T16:55:29.509Z,118.99
2023-02-18T16:57:57.612Z,118.99
2023-02-18T17:00:24.381Z,118.99
2023-02-18T17:02:54.442Z,118.99
2023-02-18T17:05:27.693Z,118.99
2023-02-18T17:07:55.745Z,118.99
2023-02-18T17:10:22.654Z,118.99
2023-02-18T17:12:49.640Z,118.99
2023-02-18T17:15:29.828Z,118.99
2023-02-18T17:17:59.360Z,118.99
2023-02-18T17:20:32.016Z,118.99
2023-02-18T17:22:59.732Z,118.99
2023-02-18T17:25:36.611Z,118.99
2023-02-18T17:28:04.467Z,118.99
2023-02-18T17:30:34.887Z,118.99
2023-02-18T17:33:03.386Z,118.99
2023-02-18T17:35:30.977Z,118.99
2023-02-18T17:37:57.892Z,118.99
2023-02-18T17:40:27.265Z,118.99
2023-02-18T17:42:55.403Z,118.99
2023-02-18T17:45:32.165Z,118.99
2023-02-18T17:48:00.247Z,118.99
2023-02-18T17:50:28.387Z,118.99
2023-02-18T17:52:55.539Z,118.99
2023-02-18T17:55:29.257Z,118.99
2023-02-18T17:57:56.456Z,118.99
2023-02-18T18:00:33.024Z,118.99
2023-02-18T18:03:00.336Z,118.99
2023-02-18T18:05:36.422Z,118.99
2023-02-18T18:08:04.435Z,118.99
2023-02-18T18:10:35.262Z,118.99
2023-02-18T18:13:05.057Z,118.99
2023-02-18T18:15:43.928Z,118.99
2023-02-18T18:18:12.959Z,118.99
2023-02-18T18:20:43.126Z,118.99
2023-02-18T18:23:12.814Z,118.99
2023-02-18T18:25:42.625Z,118.99
2023-02-18T18:28:09.442Z,118.99
2023-02-18T18:30:39.046Z,118.99
2023-02-18T18:33:27.376Z,118.99
2023-02-18T18:35:56.373Z,118.99
2023-02-18T18:38:25.962Z,118.99
2023-02-18T18:40:53.325Z,118.99
2023-02-18T18:43:26.262Z,118.99
2023-02-18T18:45:53.968Z,118.99
2023-02-18T18:48:22.802Z,118.99
2023-02-18T18:50:51.061Z,118.99
2023-02-18T18:53:23.794Z,118.99
2023-02-18T18:55:53.051Z,118.99
2023-02-18T18:58:24.618Z,118.99
2023-02-18T19:00:55.142Z,118.99
2023-02-18T19:03:24.264Z,118.99
2023-02-18T19:05:51.881Z,118.99
2023-02-18T19:08:20.327Z,118.99
2023-02-18T19:10:52.458Z,118.99
2023-02-18T19:13:20.498Z,118.99
2023-02-18T19:15:49.209Z,118.99
2023-02-18T19:18:19.176Z,118.99
2023-02-18T19:20:47.515Z,118.99
2023-02-18T19:23:14.856Z,118.99
2023-02-18T19:25:42.174Z,118.99
2023-02-18T19:28:13.870Z,118.99
2023-02-18T19:30:44.017Z,118.99
2023-02-18T19:33:12.712Z,118.99
2023-02-18T19:35:40.661Z,118.99
2023-02-18T19:38:12.212Z,118.99
2023-02-18T19:40:39.765Z,118.99
2023-02-18T19:43:07.026Z,118.99
2023-02-18T19:45:35.894Z,118.99
2023-02-18T19:48:03.109Z,118.99
2023-02-18T19:50:33.401Z,118.99
2023-02-18T19:53:00.549Z,118.99
2023-02-18T19:55:27.851Z,118.99
2023-02-18T19:57:54.602Z,118.99
2023-02-18T20:00:23.010Z,118.99
2023-02-18T20:02:50.549Z,118.99
2023-02-18T20:05:17.913Z,118.99
2023-02-18T20:07:46.825Z,118.99
2023-02-18T20:10:17.363Z,118.99
2023-02-18T20:12:44.216Z,118.99
2023-02-18T20:15:11.095Z,118.99
2023-02-18T20:17:39.391Z,118.99
2023-02-18T20:20:07.458Z,118.99
2023-02-18T20:22:34.603Z,118.99
2023-02-18T20:25:01.656Z,118.99
2023-02-18T20:27:28.648Z,118.99
2023-02-18T20:29:55.645Z,118.99
2023-02-18T20:32:22.353Z,118.99
2023-02-18T20:34:49.115Z,118.99
2023-02-18T20:37:16.195Z,118.99
2023-02-18T20:39:42.985Z,118.99
2023-02-18T20:42:16.224Z,118.99
2023-02-18T20:44:44.032Z,118.99
2023-02-18T20:47:13.794Z,118.99
2023-02-18T20:49:41.014Z,118.99
2023-02-18T20:52:09.550Z,118.99
2023-02-18T20:54:36.803Z,118.99
2023-02-18T20:57:03.605Z,118.99
2023-02-18T20:59:33.239Z,118.99
2023-02-18T21:02:00.952Z,118.99
2023-02-18T21:04:27.986Z,118.99
2023-02-18T21:06:55.682Z,118.99
2023-02-18T21:09:23.214Z,118.99
2023-02-18T21:11:49.996Z,118.99
2023-02-18T21:14:17.052Z,118.99
2023-02-18T21:16:44.506Z,118.99
2023-02-18T21:19:13.936Z,118.99
2023-02-18T21:21:41.832Z,118.99
2023-02-18T21:24:08.956Z,118.99
2023-02-18T21:26:35.662Z,118.99
2023-02-18T21:29:05.703Z,118.99
2023-02-18T21:31:35.498Z,118.99
2023-02-18T21:34:03.493Z,118.99
2023-02-18T21:36:31.665Z,118.99
2023-02-18T21:39:00.728Z,118.99
2023-02-18T21:41:28.981Z,118.99
2023-02-18T21:43:57.672Z,118.99
2023-02-18T21:46:29.505Z,118.99
2023-02-18T21:49:02.820Z,118.99
2023-02-18T21:51:49.691Z,118.99
2023-02-18T21:54:21.300Z,118.99
2023-02-18T21:56:49.348Z,118.99
2023-02-18T21:59:17.128Z,118.99
2023-02-18T22:01:44.414Z,118.99
2023-02-18T22:04:11.878Z,118.99
2023-02-18T22:06:38.701Z,118.99
2023-02-18T22:09:06.741Z,118.99
2023-02-18T22:11:34.125Z,118.99
2023-02-18T22:14:01.046Z,118.99
2023-02-18T22:16:28.682Z,118.99
2023-02-18T22:18:57.129Z,118.99
2023-02-18T22:21:24.037Z,118.99
2023-02-18T22:23:50.794Z,118.99
2023-02-18T22:26:17.911Z,118.99
2023-02-18T22:28:47.644Z,118.99
2023-02-18T22:31:14.790Z,118.99
2023-02-18T22:33:43.304Z,118.99
2023-02-18T22:36:10.359Z,118.99
2023-02-18T22:38:38.152Z,118.99
2023-02-18T22:41:10.875Z,118.99
2023-02-18T22:43:37.833Z,118.99
2023-02-18T22:46:07.805Z,118.99
2023-02-18T22:48:36.298Z,118.99
2023-02-18T22:51:18.044Z,118.99
2023-02-18T22:53:45.432Z,118.99
2023-02-18T22:56:14.874Z,118.99
2023-02-18T22:58:42.684Z,118.99
2023-02-18T23:01:22.767Z,118.99
2023-02-18T23:03:50.650Z,118.99
2023-02-18T23:06:17.895Z,118.99
2023-02-18T23:08:44.647Z,118.99
2023-02-18T23:11:13.933Z,118.99
2023-02-18T23:13:41.810Z,118.99
2023-02-18T23:16:12.888Z,118.99
2023-02-18T23:18:39.943Z,118.99
2023-02-18T23:21:18.635Z,118.99
2023-02-18T23:23:47.667Z,118.99
2023-02-18T23:26:14.938Z,118.99
2023-02-18T23:28:50.782Z,118.99
2023-02-18T23:31:18.781Z,118.99
2023-02-18T23:33:47.182Z,118.99
2023-02-18T23:36:16.778Z,118.99
2023-02-18T23:38:48.304Z,118.99
2023-02-18T23:41:15.762Z,118.99
2023-02-18T23:43:42.397Z,118.99
2023-02-18T23:46:09.132Z,118.99
2023-02-18T23:48:38.321Z,118.99
2023-02-18T23:51:07.005Z,118.99
2023-02-18T23:53:35.068Z,118.99
2023-02-18T23:56:12.808Z,118.99
2023-02-18T23:58:41.059Z,118.99
